sensor_id;sensor_type;location;lat;lon;timestamp;temperature;humidity
10390;DHT22;5241;47.830;12.972;2022-10-30T00:02:25;16.00;99.90
10390;DHT22;5241;47.830;12.972;2022-10-30T00:04:51;16.00;99.90
10390;DHT22;5241;47.830;12.972;2022-10-30T00:07:16;16.00;99.90
10390;DHT22;5241;47.830;12.972;2022-10-30T00:09:42;16.10;99.90
10390;DHT22;5241;47.830;12.972;2022-10-30T00:12:07;16.10;99.90
10390;DHT22;5241;47.830;12.972;2022-10-30T00:14:33;16.00;99.90
10390;DHT22;5241;47.830;12.972;2022-10-30T00:16:58;15.90;99.90
10390;DHT22;5241;47.830;12.972;2022-10-30T00:19:24;15.90;99.90
10390;DHT22;5241;47.830;12.972;2022-10-30T00:21:49;16.00;99.90
10390;DHT22;5241;47.830;12.972;2022-10-30T00:24:15;15.90;99.90
10390;DHT22;5241;47.830;12.972;2022-10-30T00:26:40;15.90;99.90
10390;DHT22;5241;47.830;12.972;2022-10-30T00:29:06;15.90;99.90
10390;DHT22;5241;47.830;12.972;2022-10-30T00:31:32;15.90;99.90
10390;DHT22;5241;47.830;12.972;2022-10-30T00:33:57;15.80;99.90
10390;DHT22;5241;47.830;12.972;2022-10-30T00:36:23;15.90;99.90
10390;DHT22;5241;47.830;12.972;2022-10-30T00:38:49;15.90;99.90
10390;DHT22;5241;47.830;12.972;2022-10-30T00:41:20;15.90;99.90
10390;DHT22;5241;47.830;12.972;2022-10-30T00:43:46;15.90;99.90
10390;DHT22;5241;47.830;12.972;2022-10-30T00:46:32;15.90;99.90
10390;DHT22;5241;47.830;12.972;2022-10-30T00:49:08;15.80;99.90
10390;DHT22;5241;47.830;12.972;2022-10-30T00:51:36;15.80;99.90
10390;DHT22;5241;47.830;12.972;2022-10-30T00:54:04;15.90;99.90
10390;DHT22;5241;47.830;12.972;2022-10-30T00:56:30;15.90;99.90
10390;DHT22;5241;47.830;12.972;2022-10-30T00:59:00;15.90;99.90
10390;DHT22;5241;47.830;12.972;2022-10-30T01:01:28;15.90;99.90
10390;DHT22;5241;47.830;12.972;2022-10-30T01:03:58;15.90;99.90
10390;DHT22;5241;47.830;12.972;2022-10-30T01:06:26;16.00;99.90
10390;DHT22;5241;47.830;12.972;2022-10-30T01:08:53;16.00;99.90
10390;DHT22;5241;47.830;12.972;2022-10-30T01:11:19;16.00;99.90
10390;DHT22;5241;47.830;12.972;2022-10-30T01:13:47;16.00;99.90
10390;DHT22;5241;47.830;12.972;2022-10-30T01:18:51;16.00;99.90
10390;DHT22;5241;47.830;12.972;2022-10-30T01:21:39;16.10;99.90
10390;DHT22;5241;47.830;12.972;2022-10-30T01:29:38;15.90;99.90
10390;DHT22;5241;47.830;12.972;2022-10-30T01:35:09;15.90;99.90
10390;DHT22;5241;47.830;12.972;2022-10-30T01:37:44;15.90;99.90
10390;DHT22;5241;47.830;12.972;2022-10-30T01:40:15;15.80;99.90
10390;DHT22;5241;47.830;12.972;2022-10-30T01:42:53;15.90;99.90
10390;DHT22;5241;47.830;12.972;2022-10-30T01:53:57;15.70;99.90
10390;DHT22;5241;47.830;12.972;2022-10-30T01:56:46;15.70;99.90
10390;DHT22;5241;47.830;12.972;2022-10-30T01:59:28;15.60;99.90
10390;DHT22;5241;47.830;12.972;2022-10-30T02:01:56;15.60;99.90
10390;DHT22;5241;47.830;12.972;2022-10-30T02:04:23;15.60;99.90
10390;DHT22;5241;47.830;12.972;2022-10-30T02:06:49;15.70;99.90
10390;DHT22;5241;47.830;12.972;2022-10-30T02:09:16;15.60;99.90
10390;DHT22;5241;47.830;12.972;2022-10-30T02:11:43;15.60;99.90
10390;DHT22;5241;47.830;12.972;2022-10-30T02:14:10;15.50;99.90
10390;DHT22;5241;47.830;12.972;2022-10-30T02:16:44;15.60;99.90
10390;DHT22;5241;47.830;12.972;2022-10-30T02:19:10;15.50;99.90
10390;DHT22;5241;47.830;12.972;2022-10-30T02:21:35;15.50;99.90
10390;DHT22;5241;47.830;12.972;2022-10-30T02:24:01;15.50;99.90
10390;DHT22;5241;47.830;12.972;2022-10-30T02:26:26;15.50;99.90
10390;DHT22;5241;47.830;12.972;2022-10-30T02:28:52;15.40;99.90
10390;DHT22;5241;47.830;12.972;2022-10-30T02:31:18;15.40;99.90
10390;DHT22;5241;47.830;12.972;2022-10-30T02:33:45;15.40;99.90
10390;DHT22;5241;47.830;12.972;2022-10-30T02:36:11;15.40;99.90
10390;DHT22;5241;47.830;12.972;2022-10-30T02:38:40;15.40;99.90
10390;DHT22;5241;47.830;12.972;2022-10-30T02:41:05;15.50;99.90
10390;DHT22;5241;47.830;12.972;2022-10-30T02:43:31;15.50;99.90
10390;DHT22;5241;47.830;12.972;2022-10-30T02:45:56;15.50;99.90
10390;DHT22;5241;47.830;12.972;2022-10-30T02:48:22;15.50;99.90
10390;DHT22;5241;47.830;12.972;2022-10-30T02:50:47;15.60;99.90
10390;DHT22;5241;47.830;12.972;2022-10-30T02:53:13;15.50;99.90
10390;DHT22;5241;47.830;12.972;2022-10-30T02:55:38;15.50;99.90
10390;DHT22;5241;47.830;12.972;2022-10-30T02:58:04;15.40;99.90
10390;DHT22;5241;47.830;12.972;2022-10-30T03:00:30;15.40;99.90
10390;DHT22;5241;47.830;12.972;2022-10-30T03:02:56;15.40;99.90
10390;DHT22;5241;47.830;12.972;2022-10-30T03:05:22;15.40;99.90
10390;DHT22;5241;47.830;12.972;2022-10-30T03:07:47;15.40;99.90
10390;DHT22;5241;47.830;12.972;2022-10-30T03:10:14;15.30;99.90
10390;DHT22;5241;47.830;12.972;2022-10-30T03:12:39;15.30;99.90
10390;DHT22;5241;47.830;12.972;2022-10-30T03:15:05;15.40;99.90
10390;DHT22;5241;47.830;12.972;2022-10-30T03:17:31;15.30;99.90
10390;DHT22;5241;47.830;12.972;2022-10-30T03:19:57;15.20;99.90
10390;DHT22;5241;47.830;12.972;2022-10-30T03:22:22;15.20;99.90
10390;DHT22;5241;47.830;12.972;2022-10-30T03:24:48;15.20;99.90
10390;DHT22;5241;47.830;12.972;2022-10-30T03:27:13;15.30;99.90
10390;DHT22;5241;47.830;12.972;2022-10-30T03:29:39;15.30;99.90
10390;DHT22;5241;47.830;12.972;2022-10-30T03:32:08;15.30;99.90
10390;DHT22;5241;47.830;12.972;2022-10-30T03:34:35;15.30;99.90
10390;DHT22;5241;47.830;12.972;2022-10-30T03:37:00;15.40;99.90
10390;DHT22;5241;47.830;12.972;2022-10-30T03:39:26;15.30;99.90
10390;DHT22;5241;47.830;12.972;2022-10-30T03:41:51;15.30;99.90
10390;DHT22;5241;47.830;12.972;2022-10-30T03:44:17;15.30;99.90
10390;DHT22;5241;47.830;12.972;2022-10-30T03:46:43;15.40;99.90
10390;DHT22;5241;47.830;12.972;2022-10-30T03:49:08;15.40;99.90
10390;DHT22;5241;47.830;12.972;2022-10-30T03:51:34;15.40;99.90
10390;DHT22;5241;47.830;12.972;2022-10-30T03:53:59;15.40;99.90
10390;DHT22;5241;47.830;12.972;2022-10-30T03:56:25;15.40;99.90
10390;DHT22;5241;47.830;12.972;2022-10-30T03:58:50;15.40;99.90
10390;DHT22;5241;47.830;12.972;2022-10-30T04:01:16;15.40;99.90
10390;DHT22;5241;47.830;12.972;2022-10-30T04:03:41;15.40;99.90
10390;DHT22;5241;47.830;12.972;2022-10-30T04:06:07;15.30;99.90
10390;DHT22;5241;47.830;12.972;2022-10-30T04:08:33;15.30;99.90
10390;DHT22;5241;47.830;12.972;2022-10-30T04:10:59;15.30;99.90
10390;DHT22;5241;47.830;12.972;2022-10-30T04:13:24;15.20;99.90
10390;DHT22;5241;47.830;12.972;2022-10-30T04:15:50;15.20;99.90
10390;DHT22;5241;47.830;12.972;2022-10-30T04:18:17;15.10;99.90
10390;DHT22;5241;47.830;12.972;2022-10-30T04:20:43;15.10;99.90
10390;DHT22;5241;47.830;12.972;2022-10-30T04:23:13;15.00;99.90
10390;DHT22;5241;47.830;12.972;2022-10-30T04:25:39;15.00;99.90
10390;DHT22;5241;47.830;12.972;2022-10-30T04:28:04;15.00;99.90
10390;DHT22;5241;47.830;12.972;2022-10-30T04:30:30;15.10;99.90
10390;DHT22;5241;47.830;12.972;2022-10-30T04:33:02;15.10;99.90
10390;DHT22;5241;47.830;12.972;2022-10-30T04:35:30;15.20;99.90
10390;DHT22;5241;47.830;12.972;2022-10-30T04:37:58;15.20;99.90
10390;DHT22;5241;47.830;12.972;2022-10-30T04:40:25;15.10;99.90
10390;DHT22;5241;47.830;12.972;2022-10-30T04:42:51;15.20;99.90
10390;DHT22;5241;47.830;12.972;2022-10-30T04:45:17;15.20;99.90
10390;DHT22;5241;47.830;12.972;2022-10-30T04:47:43;15.20;99.90
10390;DHT22;5241;47.830;12.972;2022-10-30T04:50:09;15.10;99.90
10390;DHT22;5241;47.830;12.972;2022-10-30T04:52:35;15.10;99.90
10390;DHT22;5241;47.830;12.972;2022-10-30T04:55:02;15.20;99.90
10390;DHT22;5241;47.830;12.972;2022-10-30T04:57:27;15.10;99.90
10390;DHT22;5241;47.830;12.972;2022-10-30T04:59:53;15.10;99.90
10390;DHT22;5241;47.830;12.972;2022-10-30T05:02:18;15.00;99.90
10390;DHT22;5241;47.830;12.972;2022-10-30T05:04:44;15.00;99.90
10390;DHT22;5241;47.830;12.972;2022-10-30T05:07:11;15.00;99.90
10390;DHT22;5241;47.830;12.972;2022-10-30T05:09:37;14.90;99.90
10390;DHT22;5241;47.830;12.972;2022-10-30T05:12:02;14.90;99.90
10390;DHT22;5241;47.830;12.972;2022-10-30T05:14:30;15.00;99.90
10390;DHT22;5241;47.830;12.972;2022-10-30T05:16:55;14.90;99.90
10390;DHT22;5241;47.830;12.972;2022-10-30T05:19:21;15.00;99.90
10390;DHT22;5241;47.830;12.972;2022-10-30T05:21:47;15.00;99.90
10390;DHT22;5241;47.830;12.972;2022-10-30T05:24:12;15.00;99.90
10390;DHT22;5241;47.830;12.972;2022-10-30T05:26:38;15.00;99.90
10390;DHT22;5241;47.830;12.972;2022-10-30T05:29:03;14.90;99.90
10390;DHT22;5241;47.830;12.972;2022-10-30T05:31:29;14.90;99.90
10390;DHT22;5241;47.830;12.972;2022-10-30T05:33:54;14.80;99.90
10390;DHT22;5241;47.830;12.972;2022-10-30T05:36:20;14.80;99.90
10390;DHT22;5241;47.830;12.972;2022-10-30T05:38:45;14.80;99.90
10390;DHT22;5241;47.830;12.972;2022-10-30T05:41:12;14.80;99.90
10390;DHT22;5241;47.830;12.972;2022-10-30T05:43:37;14.80;99.90
10390;DHT22;5241;47.830;12.972;2022-10-30T05:46:03;14.80;99.90
10390;DHT22;5241;47.830;12.972;2022-10-30T05:48:28;14.80;99.90
10390;DHT22;5241;47.830;12.972;2022-10-30T05:50:55;14.90;99.90
10390;DHT22;5241;47.830;12.972;2022-10-30T05:53:21;14.90;99.90
10390;DHT22;5241;47.830;12.972;2022-10-30T05:55:46;14.90;99.90
10390;DHT22;5241;47.830;12.972;2022-10-30T05:58:12;14.90;99.90
10390;DHT22;5241;47.830;12.972;2022-10-30T06:00:38;14.90;99.90
10390;DHT22;5241;47.830;12.972;2022-10-30T06:03:07;14.80;99.90
10390;DHT22;5241;47.830;12.972;2022-10-30T06:05:35;14.80;99.90
10390;DHT22;5241;47.830;12.972;2022-10-30T06:08:02;14.70;99.90
10390;DHT22;5241;47.830;12.972;2022-10-30T06:10:28;14.70;99.90
10390;DHT22;5241;47.830;12.972;2022-10-30T06:12:59;14.70;99.90
10390;DHT22;5241;47.830;12.972;2022-10-30T06:15:26;14.70;99.90
10390;DHT22;5241;47.830;12.972;2022-10-30T06:17:51;14.80;99.90
10390;DHT22;5241;47.830;12.972;2022-10-30T06:20:19;14.90;99.90
10390;DHT22;5241;47.830;12.972;2022-10-30T06:22:58;14.90;99.90
10390;DHT22;5241;47.830;12.972;2022-10-30T06:25:25;15.00;99.90
10390;DHT22;5241;47.830;12.972;2022-10-30T06:27:51;15.00;99.90
10390;DHT22;5241;47.830;12.972;2022-10-30T06:30:17;15.00;99.90
10390;DHT22;5241;47.830;12.972;2022-10-30T06:32:43;15.00;99.90
10390;DHT22;5241;47.830;12.972;2022-10-30T06:35:09;15.00;99.90
10390;DHT22;5241;47.830;12.972;2022-10-30T06:37:34;15.00;99.90
10390;DHT22;5241;47.830;12.972;2022-10-30T06:40:00;15.00;99.90
10390;DHT22;5241;47.830;12.972;2022-10-30T06:42:26;15.00;99.90
10390;DHT22;5241;47.830;12.972;2022-10-30T06:44:51;15.10;99.90
10390;DHT22;5241;47.830;12.972;2022-10-30T06:47:17;15.20;99.90
10390;DHT22;5241;47.830;12.972;2022-10-30T06:49:42;15.10;99.90
10390;DHT22;5241;47.830;12.972;2022-10-30T06:52:08;15.10;99.90
10390;DHT22;5241;47.830;12.972;2022-10-30T06:54:33;15.10;99.90
10390;DHT22;5241;47.830;12.972;2022-10-30T06:56:59;15.20;99.90
10390;DHT22;5241;47.830;12.972;2022-10-30T06:59:25;15.30;99.90
10390;DHT22;5241;47.830;12.972;2022-10-30T07:01:50;15.40;99.90
10390;DHT22;5241;47.830;12.972;2022-10-30T07:04:16;15.40;99.90
10390;DHT22;5241;47.830;12.972;2022-10-30T07:06:41;15.50;99.90
10390;DHT22;5241;47.830;12.972;2022-10-30T07:09:07;15.50;99.90
10390;DHT22;5241;47.830;12.972;2022-10-30T07:11:33;15.60;99.90
10390;DHT22;5241;47.830;12.972;2022-10-30T07:13:58;15.60;99.90
10390;DHT22;5241;47.830;12.972;2022-10-30T07:16:24;15.70;99.90
10390;DHT22;5241;47.830;12.972;2022-10-30T07:18:50;15.70;99.90
10390;DHT22;5241;47.830;12.972;2022-10-30T07:21:16;15.80;99.90
10390;DHT22;5241;47.830;12.972;2022-10-30T07:23:41;15.80;99.90
10390;DHT22;5241;47.830;12.972;2022-10-30T07:26:07;15.90;99.90
10390;DHT22;5241;47.830;12.972;2022-10-30T07:28:33;15.90;99.90
10390;DHT22;5241;47.830;12.972;2022-10-30T07:30:58;15.90;99.90
10390;DHT22;5241;47.830;12.972;2022-10-30T07:33:24;15.90;99.90
10390;DHT22;5241;47.830;12.972;2022-10-30T07:35:50;15.60;99.90
10390;DHT22;5241;47.830;12.972;2022-10-30T07:38:15;15.00;99.90
10390;DHT22;5241;47.830;12.972;2022-10-30T07:40:42;14.60;99.90
10390;DHT22;5241;47.830;12.972;2022-10-30T07:43:08;14.50;99.90
10390;DHT22;5241;47.830;12.972;2022-10-30T07:45:37;14.30;99.90
10390;DHT22;5241;47.830;12.972;2022-10-30T07:48:03;14.20;99.90
10390;DHT22;5241;47.830;12.972;2022-10-30T07:50:29;14.20;99.90
10390;DHT22;5241;47.830;12.972;2022-10-30T07:52:54;14.20;99.90
10390;DHT22;5241;47.830;12.972;2022-10-30T07:55:20;14.20;99.90
10390;DHT22;5241;47.830;12.972;2022-10-30T07:57:45;14.20;99.90
10390;DHT22;5241;47.830;12.972;2022-10-30T08:00:13;14.30;99.90
10390;DHT22;5241;47.830;12.972;2022-10-30T08:02:39;14.40;99.90
10390;DHT22;5241;47.830;12.972;2022-10-30T08:05:05;14.40;99.90
10390;DHT22;5241;47.830;12.972;2022-10-30T08:07:34;14.50;99.90
10390;DHT22;5241;47.830;12.972;2022-10-30T08:10:01;14.60;99.90
10390;DHT22;5241;47.830;12.972;2022-10-30T08:12:26;14.70;99.90
10390;DHT22;5241;47.830;12.972;2022-10-30T08:14:52;14.80;99.90
10390;DHT22;5241;47.830;12.972;2022-10-30T08:17:19;15.10;99.90
10390;DHT22;5241;47.830;12.972;2022-10-30T08:19:45;15.20;99.90
10390;DHT22;5241;47.830;12.972;2022-10-30T08:22:11;15.30;99.90
10390;DHT22;5241;47.830;12.972;2022-10-30T08:24:36;15.40;99.90
10390;DHT22;5241;47.830;12.972;2022-10-30T08:27:02;15.50;99.90
10390;DHT22;5241;47.830;12.972;2022-10-30T08:29:28;15.60;99.90
10390;DHT22;5241;47.830;12.972;2022-10-30T08:31:53;15.70;99.90
10390;DHT22;5241;47.830;12.972;2022-10-30T08:34:19;15.90;99.90
10390;DHT22;5241;47.830;12.972;2022-10-30T08:36:48;16.20;99.90
10390;DHT22;5241;47.830;12.972;2022-10-30T08:39:14;16.80;99.90
10390;DHT22;5241;47.830;12.972;2022-10-30T08:41:40;17.40;99.90
10390;DHT22;5241;47.830;12.972;2022-10-30T08:44:05;17.80;99.90
10390;DHT22;5241;47.830;12.972;2022-10-30T08:46:31;18.30;99.90
10390;DHT22;5241;47.830;12.972;2022-10-30T08:48:56;18.80;99.90
10390;DHT22;5241;47.830;12.972;2022-10-30T08:51:22;19.00;99.90
10390;DHT22;5241;47.830;12.972;2022-10-30T08:53:48;19.20;99.90
10390;DHT22;5241;47.830;12.972;2022-10-30T08:56:16;19.60;99.90
10390;DHT22;5241;47.830;12.972;2022-10-30T08:58:42;19.90;99.40
10390;DHT22;5241;47.830;12.972;2022-10-30T09:01:08;20.10;98.00
10390;DHT22;5241;47.830;12.972;2022-10-30T09:03:34;20.40;97.30
10390;DHT22;5241;47.830;12.972;2022-10-30T09:05:59;20.40;95.80
10390;DHT22;5241;47.830;12.972;2022-10-30T09:08:26;20.40;95.40
10390;DHT22;5241;47.830;12.972;2022-10-30T09:10:58;20.40;93.70
10390;DHT22;5241;47.830;12.972;2022-10-30T09:13:24;20.60;92.90
10390;DHT22;5241;47.830;12.972;2022-10-30T09:15:50;20.60;94.40
10390;DHT22;5241;47.830;12.972;2022-10-30T09:18:16;20.90;93.60
10390;DHT22;5241;47.830;12.972;2022-10-30T09:20:41;21.30;91.90
10390;DHT22;5241;47.830;12.972;2022-10-30T09:23:07;21.50;90.30
10390;DHT22;5241;47.830;12.972;2022-10-30T09:25:33;21.70;89.20
10390;DHT22;5241;47.830;12.972;2022-10-30T09:27:58;21.90;88.30
10390;DHT22;5241;47.830;12.972;2022-10-30T09:30:24;21.80;88.60
10390;DHT22;5241;47.830;12.972;2022-10-30T09:33:00;21.60;89.60
10390;DHT22;5241;47.830;12.972;2022-10-30T09:35:29;21.70;88.80
10390;DHT22;5241;47.830;12.972;2022-10-30T09:37:56;21.80;88.10
10390;DHT22;5241;47.830;12.972;2022-10-30T09:40:45;21.70;87.10
10390;DHT22;5241;47.830;12.972;2022-10-30T09:46:20;22.00;89.20
10390;DHT22;5241;47.830;12.972;2022-10-30T09:57:03;22.60;84.10
10390;DHT22;5241;47.830;12.972;2022-10-30T09:59:43;22.70;82.70
10390;DHT22;5241;47.830;12.972;2022-10-30T10:02:34;22.80;81.30
10390;DHT22;5241;47.830;12.972;2022-10-30T10:05:18;22.90;85.20
10390;DHT22;5241;47.830;12.972;2022-10-30T10:07:51;22.90;81.90
10390;DHT22;5241;47.830;12.972;2022-10-30T10:10:38;22.90;84.10
10390;DHT22;5241;47.830;12.972;2022-10-30T10:13:08;23.00;84.70
10390;DHT22;5241;47.830;12.972;2022-10-30T10:15:50;21.80;89.30
10390;DHT22;5241;47.830;12.972;2022-10-30T10:18:23;21.30;91.90
10390;DHT22;5241;47.830;12.972;2022-10-30T10:20:52;21.10;92.40
10390;DHT22;5241;47.830;12.972;2022-10-30T10:23:29;21.00;92.70
10390;DHT22;5241;47.830;12.972;2022-10-30T10:26:00;21.30;92.70
10390;DHT22;5241;47.830;12.972;2022-10-30T10:28:39;21.80;92.50
10390;DHT22;5241;47.830;12.972;2022-10-30T10:31:33;22.10;92.10
10390;DHT22;5241;47.830;12.972;2022-10-30T10:39:52;22.70;92.90
10390;DHT22;5241;47.830;12.972;2022-10-30T10:45:16;22.10;93.00
10390;DHT22;5241;47.830;12.972;2022-10-30T10:48:31;22.60;91.80
10390;DHT22;5241;47.830;12.972;2022-10-30T10:50:52;23.60;89.90
10390;DHT22;5241;47.830;12.972;2022-10-30T10:55:57;24.30;87.60
10390;DHT22;5241;47.830;12.972;2022-10-30T10:58:31;25.00;86.20
10390;DHT22;5241;47.830;12.972;2022-10-30T11:00:58;24.90;85.20
10390;DHT22;5241;47.830;12.972;2022-10-30T11:03:41;23.90;86.80
10390;DHT22;5241;47.830;12.972;2022-10-30T11:06:30;23.20;89.50
10390;DHT22;5241;47.830;12.972;2022-10-30T11:09:14;23.30;87.30
10390;DHT22;5241;47.830;12.972;2022-10-30T11:11:42;23.10;87.30
10390;DHT22;5241;47.830;12.972;2022-10-30T11:14:28;22.80;88.90
10390;DHT22;5241;47.830;12.972;2022-10-30T11:19:37;23.60;87.20
10390;DHT22;5241;47.830;12.972;2022-10-30T11:22:44;23.40;86.70
10390;DHT22;5241;47.830;12.972;2022-10-30T11:27:48;24.50;83.40
10390;DHT22;5241;47.830;12.972;2022-10-30T11:30:22;24.30;84.80
10390;DHT22;5241;47.830;12.972;2022-10-30T11:32:49;24.90;82.90
10390;DHT22;5241;47.830;12.972;2022-10-30T11:35:17;24.50;83.10
10390;DHT22;5241;47.830;12.972;2022-10-30T11:37:45;24.00;84.00
10390;DHT22;5241;47.830;12.972;2022-10-30T11:42:38;23.50;86.00
10390;DHT22;5241;47.830;12.972;2022-10-30T11:45:14;23.50;86.30
10390;DHT22;5241;47.830;12.972;2022-10-30T11:47:40;23.20;86.70
10390;DHT22;5241;47.830;12.972;2022-10-30T11:50:21;22.80;87.90
10390;DHT22;5241;47.830;12.972;2022-10-30T11:52:52;22.70;89.20
10390;DHT22;5241;47.830;12.972;2022-10-30T11:55:23;22.70;89.10
10390;DHT22;5241;47.830;12.972;2022-10-30T11:57:57;22.40;88.50
10390;DHT22;5241;47.830;12.972;2022-10-30T12:00:26;22.70;88.30
10390;DHT22;5241;47.830;12.972;2022-10-30T12:02:54;22.70;87.50
10390;DHT22;5241;47.830;12.972;2022-10-30T12:08:35;22.30;87.30
10390;DHT22;5241;47.830;12.972;2022-10-30T12:13:18;22.20;88.90
10390;DHT22;5241;47.830;12.972;2022-10-30T12:15:47;22.10;89.70
10390;DHT22;5241;47.830;12.972;2022-10-30T12:18:20;22.20;89.00
10390;DHT22;5241;47.830;12.972;2022-10-30T12:20:51;22.20;89.60
10390;DHT22;5241;47.830;12.972;2022-10-30T12:23:22;22.10;90.50
10390;DHT22;5241;47.830;12.972;2022-10-30T12:25:52;22.40;90.50
10390;DHT22;5241;47.830;12.972;2022-10-30T12:28:27;22.50;90.40
10390;DHT22;5241;47.830;12.972;2022-10-30T12:33:46;22.40;90.20
10390;DHT22;5241;47.830;12.972;2022-10-30T12:36:28;22.30;90.50
10390;DHT22;5241;47.830;12.972;2022-10-30T12:38:58;22.50;90.60
10390;DHT22;5241;47.830;12.972;2022-10-30T12:41:43;22.40;91.00
10390;DHT22;5241;47.830;12.972;2022-10-30T12:47:19;21.90;91.10
10390;DHT22;5241;47.830;12.972;2022-10-30T12:49:57;21.60;92.30
10390;DHT22;5241;47.830;12.972;2022-10-30T12:55:01;22.20;92.10
10390;DHT22;5241;47.830;12.972;2022-10-30T12:57:35;22.30;91.70
10390;DHT22;5241;47.830;12.972;2022-10-30T13:00:13;22.20;92.40
10390;DHT22;5241;47.830;12.972;2022-10-30T13:05:37;21.90;92.60
10390;DHT22;5241;47.830;12.972;2022-10-30T13:13:26;21.90;92.90
10390;DHT22;5241;47.830;12.972;2022-10-30T13:15:55;21.90;92.60
10390;DHT22;5241;47.830;12.972;2022-10-30T13:18:24;22.00;92.10
10390;DHT22;5241;47.830;12.972;2022-10-30T13:23:51;21.90;93.20
10390;DHT22;5241;47.830;12.972;2022-10-30T13:26:37;21.90;93.30
10390;DHT22;5241;47.830;12.972;2022-10-30T13:42:43;21.60;94.70
10390;DHT22;5241;47.830;12.972;2022-10-30T13:53:25;21.70;94.70
10390;DHT22;5241;47.830;12.972;2022-10-30T13:55:54;21.80;95.80
10390;DHT22;5241;47.830;12.972;2022-10-30T14:15:12;21.30;97.60
10390;DHT22;5241;47.830;12.972;2022-10-30T14:20:41;21.20;98.70
10390;DHT22;5241;47.830;12.972;2022-10-30T14:23:12;21.00;98.70
10390;DHT22;5241;47.830;12.972;2022-10-30T14:25:39;21.00;98.60
10390;DHT22;5241;47.830;12.972;2022-10-30T14:28:12;20.80;99.00
10390;DHT22;5241;47.830;12.972;2022-10-30T14:30:43;20.70;99.50
10390;DHT22;5241;47.830;12.972;2022-10-30T14:53:08;20.20;99.90
10390;DHT22;5241;47.830;12.972;2022-10-30T14:55:54;20.10;99.90
10390;DHT22;5241;47.830;12.972;2022-10-30T14:58:24;19.90;99.90
10390;DHT22;5241;47.830;12.972;2022-10-30T15:04:33;19.60;99.90
10390;DHT22;5241;47.830;12.972;2022-10-30T15:12:23;19.30;99.90
10390;DHT22;5241;47.830;12.972;2022-10-30T15:15:03;19.30;99.90
10390;DHT22;5241;47.830;12.972;2022-10-30T15:17:37;19.30;99.90
10390;DHT22;5241;47.830;12.972;2022-10-30T15:20:12;19.10;99.90
10390;DHT22;5241;47.830;12.972;2022-10-30T15:22:39;19.00;99.90
10390;DHT22;5241;47.830;12.972;2022-10-30T15:25:14;19.00;99.90
10390;DHT22;5241;47.830;12.972;2022-10-30T15:27:42;18.90;99.90
10390;DHT22;5241;47.830;12.972;2022-10-30T15:30:17;18.80;99.90
10390;DHT22;5241;47.830;12.972;2022-10-30T15:32:43;18.70;99.90
10390;DHT22;5241;47.830;12.972;2022-10-30T15:35:15;18.50;99.90
10390;DHT22;5241;47.830;12.972;2022-10-30T15:38:02;18.30;99.90
10390;DHT22;5241;47.830;12.972;2022-10-30T15:40:29;18.20;99.90
10390;DHT22;5241;47.830;12.972;2022-10-30T15:42:56;18.10;99.90
10390;DHT22;5241;47.830;12.972;2022-10-30T15:48:04;17.80;99.90
10390;DHT22;5241;47.830;12.972;2022-10-30T15:50:32;17.60;99.90
10390;DHT22;5241;47.830;12.972;2022-10-30T15:52:58;17.50;99.90
10390;DHT22;5241;47.830;12.972;2022-10-30T15:55:30;17.40;99.90
10390;DHT22;5241;47.830;12.972;2022-10-30T15:58:04;17.20;99.90
10390;DHT22;5241;47.830;12.972;2022-10-30T16:00:35;17.00;99.90
10390;DHT22;5241;47.830;12.972;2022-10-30T16:05:29;16.60;99.90
10390;DHT22;5241;47.830;12.972;2022-10-30T16:08:00;16.50;99.90
10390;DHT22;5241;47.830;12.972;2022-10-30T16:10:34;16.30;99.90
10390;DHT22;5241;47.830;12.972;2022-10-30T16:13:01;16.10;99.90
10390;DHT22;5241;47.830;12.972;2022-10-30T16:15:33;16.00;99.90
10390;DHT22;5241;47.830;12.972;2022-10-30T16:18:05;15.90;99.90
10390;DHT22;5241;47.830;12.972;2022-10-30T16:20:32;15.80;99.90
10390;DHT22;5241;47.830;12.972;2022-10-30T16:22:59;15.70;99.90
10390;DHT22;5241;47.830;12.972;2022-10-30T16:25:25;15.70;99.90
10390;DHT22;5241;47.830;12.972;2022-10-30T16:27:51;15.60;99.90
10390;DHT22;5241;47.830;12.972;2022-10-30T16:30:17;15.50;99.90
10390;DHT22;5241;47.830;12.972;2022-10-30T16:32:49;15.40;99.90
10390;DHT22;5241;47.830;12.972;2022-10-30T16:35:18;15.50;99.90
10390;DHT22;5241;47.830;12.972;2022-10-30T16:37:46;15.60;99.90
10390;DHT22;5241;47.830;12.972;2022-10-30T16:40:18;15.50;99.90
10390;DHT22;5241;47.830;12.972;2022-10-30T16:42:54;15.50;99.90
10390;DHT22;5241;47.830;12.972;2022-10-30T16:45:45;15.40;99.90
10390;DHT22;5241;47.830;12.972;2022-10-30T16:48:33;15.10;99.90
10390;DHT22;5241;47.830;12.972;2022-10-30T16:51:03;14.90;99.90
10390;DHT22;5241;47.830;12.972;2022-10-30T16:53:29;14.80;99.90
10390;DHT22;5241;47.830;12.972;2022-10-30T16:55:56;14.70;99.90
10390;DHT22;5241;47.830;12.972;2022-10-30T16:58:28;14.70;99.90
10390;DHT22;5241;47.830;12.972;2022-10-30T17:01:05;14.60;99.90
10390;DHT22;5241;47.830;12.972;2022-10-30T17:03:35;14.50;99.90
10390;DHT22;5241;47.830;12.972;2022-10-30T17:06:14;14.40;99.90
10390;DHT22;5241;47.830;12.972;2022-10-30T17:08:52;14.40;99.90
10390;DHT22;5241;47.830;12.972;2022-10-30T17:11:19;14.30;99.90
10390;DHT22;5241;47.830;12.972;2022-10-30T17:13:58;14.40;99.90
10390;DHT22;5241;47.830;12.972;2022-10-30T17:16:27;14.30;99.90
10390;DHT22;5241;47.830;12.972;2022-10-30T17:19:36;14.20;99.90
10390;DHT22;5241;47.830;12.972;2022-10-30T17:21:50;14.10;99.90
10390;DHT22;5241;47.830;12.972;2022-10-30T17:24:23;14.10;99.90
10390;DHT22;5241;47.830;12.972;2022-10-30T17:26:58;14.00;99.90
10390;DHT22;5241;47.830;12.972;2022-10-30T17:29:43;14.00;99.90
10390;DHT22;5241;47.830;12.972;2022-10-30T17:32:19;14.00;99.90
10390;DHT22;5241;47.830;12.972;2022-10-30T17:34:46;13.90;99.90
10390;DHT22;5241;47.830;12.972;2022-10-30T17:37:11;13.90;99.90
10390;DHT22;5241;47.830;12.972;2022-10-30T17:39:37;13.90;99.90
10390;DHT22;5241;47.830;12.972;2022-10-30T17:42:03;13.90;99.90
10390;DHT22;5241;47.830;12.972;2022-10-30T17:44:31;13.90;99.90
10390;DHT22;5241;47.830;12.972;2022-10-30T17:46:57;13.80;99.90
10390;DHT22;5241;47.830;12.972;2022-10-30T17:49:27;13.90;99.90
10390;DHT22;5241;47.830;12.972;2022-10-30T17:51:53;13.80;99.90
10390;DHT22;5241;47.830;12.972;2022-10-30T17:54:19;13.70;99.90
10390;DHT22;5241;47.830;12.972;2022-10-30T17:56:44;13.60;99.90
10390;DHT22;5241;47.830;12.972;2022-10-30T17:59:10;13.60;99.90
10390;DHT22;5241;47.830;12.972;2022-10-30T18:01:36;13.50;99.90
10390;DHT22;5241;47.830;12.972;2022-10-30T18:04:04;13.40;99.90
10390;DHT22;5241;47.830;12.972;2022-10-30T18:06:29;13.40;99.90
10390;DHT22;5241;47.830;12.972;2022-10-30T18:08:55;13.30;99.90
10390;DHT22;5241;47.830;12.972;2022-10-30T18:11:22;13.30;99.90
10390;DHT22;5241;47.830;12.972;2022-10-30T18:13:50;13.30;99.90